sensor_id;sensor_type;location;lat;lon;timestamp;pressure;altitude;pressure_sealevel;temperature;humidity
13348;BME280;6743;49.934;9.138;2022-12-18T00:01:43;101858.94;;;-8.73;100.00
13348;BME280;6743;49.934;9.138;2022-12-18T00:04:19;101858.09;;;-8.72;100.00
13348;BME280;6743;49.934;9.138;2022-12-18T00:06:46;101852.97;;;-8.79;100.00
13348;BME280;6743;49.934;9.138;2022-12-18T00:09:12;101866.66;;;-8.73;100.00
13348;BME280;6743;49.934;9.138;2022-12-18T00:11:38;101866.69;;;-8.78;100.00
13348;BME280;6743;49.934;9.138;2022-12-18T00:14:04;101879.53;;;-8.77;100.00
13348;BME280;6743;49.934;9.138;2022-12-18T00:16:31;101884.69;;;-8.78;100.00
13348;BME280;6743;49.934;9.138;2022-12-18T00:18:59;101883.84;;;-8.79;100.00
13348;BME280;6743;49.934;9.138;2022-12-18T00:21:26;101892.41;;;-8.78;100.00
13348;BME280;6743;49.934;9.138;2022-12-18T00:23:52;101888.97;;;-8.80;100.00
13348;BME280;6743;49.934;9.138;2022-12-18T00:26:20;101895.84;;;-8.79;100.00
13348;BME280;6743;49.934;9.138;2022-12-18T00:28:47;101891.56;;;-8.79;100.00
13348;BME280;6743;49.934;9.138;2022-12-18T00:31:15;101875.28;;;-8.90;100.00
13348;BME280;6743;49.934;9.138;2022-12-18T00:33:42;101883.81;;;-8.77;100.00
13348;BME280;6743;49.934;9.138;2022-12-18T00:36:11;101890.66;;;-8.76;100.00
13348;BME280;6743;49.934;9.138;2022-12-18T00:38:37;101889.81;;;-8.73;100.00
13348;BME280;6743;49.934;9.138;2022-12-18T00:41:04;101894.97;;;-8.73;100.00
13348;BME280;6743;49.934;9.138;2022-12-18T00:43:34;101891.53;;;-8.72;100.00
13348;BME280;6743;49.934;9.138;2022-12-18T00:46:00;101894.06;;;-8.71;100.00
13348;BME280;6743;49.934;9.138;2022-12-18T00:48:26;101890.66;;;-8.70;100.00
13348;BME280;6743;49.934;9.138;2022-12-18T00:50:52;101896.66;;;-8.68;100.00
13348;BME280;6743;49.934;9.138;2022-12-18T00:53:18;101888.09;;;-8.73;100.00
13348;BME280;6743;49.934;9.138;2022-12-18T00:55:45;101889.78;;;-8.67;100.00
13348;BME280;6743;49.934;9.138;2022-12-18T00:58:13;101897.50;;;-8.69;100.00
13348;BME280;6743;49.934;9.138;2022-12-18T01:00:39;101887.22;;;-8.66;100.00
13348;BME280;6743;49.934;9.138;2022-12-18T01:03:06;101886.38;;;-8.66;100.00
13348;BME280;6743;49.934;9.138;2022-12-18T01:05:32;101879.50;;;-8.67;100.00
13348;BME280;6743;49.934;9.138;2022-12-18T01:07:59;101887.22;;;-8.67;100.00
13348;BME280;6743;49.934;9.138;2022-12-18T01:10:25;101893.22;;;-8.65;100.00
13348;BME280;6743;49.934;9.138;2022-12-18T01:12:51;101868.41;;;-8.82;100.00
13348;BME280;6743;49.934;9.138;2022-12-18T01:15:18;101899.22;;;-8.63;100.00
13348;BME280;6743;49.934;9.138;2022-12-18T01:17:44;101884.63;;;-8.61;100.00
13348;BME280;6743;49.934;9.138;2022-12-18T01:20:11;101891.50;;;-8.60;100.00
13348;BME280;6743;49.934;9.138;2022-12-18T01:22:37;101896.62;;;-8.57;100.00
13348;BME280;6743;49.934;9.138;2022-12-18T01:25:05;101883.78;;;-8.62;100.00
13348;BME280;6743;49.934;9.138;2022-12-18T01:27:32;101888.03;;;-8.53;100.00
13348;BME280;6743;49.934;9.138;2022-12-18T01:29:58;101888.00;;;-8.49;100.00
13348;BME280;6743;49.934;9.138;2022-12-18T01:32:25;101893.16;;;-8.46;100.00
13348;BME280;6743;49.934;9.138;2022-12-18T01:34:50;101886.28;;;-8.42;100.00
13348;BME280;6743;49.934;9.138;2022-12-18T01:37:18;101882.00;;;-8.39;100.00
13348;BME280;6743;49.934;9.138;2022-12-18T01:39:44;101884.53;;;-8.36;100.00
13348;BME280;6743;49.934;9.138;2022-12-18T01:42:14;101893.97;;;-8.31;100.00
13348;BME280;6743;49.934;9.138;2022-12-18T01:45:05;101901.69;;;-8.31;100.00
13348;BME280;6743;49.934;9.138;2022-12-18T01:47:37;101913.72;;;-8.32;100.00
13348;BME280;6743;49.934;9.138;2022-12-18T01:50:09;101914.56;;;-8.31;100.00
13348;BME280;6743;49.934;9.138;2022-12-18T01:52:36;101912.00;;;-8.31;100.00
13348;BME280;6743;49.934;9.138;2022-12-18T01:55:05;101901.69;;;-8.33;100.00
13348;BME280;6743;49.934;9.138;2022-12-18T01:57:32;101881.16;;;-8.45;100.00
13348;BME280;6743;49.934;9.138;2022-12-18T02:00:03;101900.84;;;-8.33;100.00
13348;BME280;6743;49.934;9.138;2022-12-18T02:02:30;101890.56;;;-8.43;100.00
13348;BME280;6743;49.934;9.138;2022-12-18T02:04:59;101911.13;;;-8.33;100.00
13348;BME280;6743;49.934;9.138;2022-12-18T02:07:30;101903.34;;;-8.29;100.00
13348;BME280;6743;49.934;9.138;2022-12-18T02:10:03;101897.34;;;-8.26;100.00
13348;BME280;6743;49.934;9.138;2022-12-18T02:12:36;101893.91;;;-8.25;100.00
13348;BME280;6743;49.934;9.138;2022-12-18T02:15:12;101882.81;;;-8.30;100.00
13348;BME280;6743;49.934;9.138;2022-12-18T02:17:43;101875.09;;;-8.32;100.00
13348;BME280;6743;49.934;9.138;2022-12-18T02:20:16;101881.91;;;-8.23;100.00
13348;BME280;6743;49.934;9.138;2022-12-18T02:22:53;101890.47;;;-8.23;100.00
13348;BME280;6743;49.934;9.138;2022-12-18T02:25:38;101895.63;;;-8.23;100.00
13348;BME280;6743;49.934;9.138;2022-12-18T02:28:09;101893.91;;;-8.24;100.00
13348;BME280;6743;49.934;9.138;2022-12-18T02:30:39;101893.88;;;-8.22;100.00
13348;BME280;6743;49.934;9.138;2022-12-18T02:33:07;101908.50;;;-8.23;100.00
13348;BME280;6743;49.934;9.138;2022-12-18T02:35:34;101905.91;;;-8.20;100.00
13348;BME280;6743;49.934;9.138;2022-12-18T02:38:03;101899.88;;;-8.19;100.00
13348;BME280;6743;49.934;9.138;2022-12-18T02:40:30;101898.19;;;-8.21;100.00
13348;BME280;6743;49.934;9.138;2022-12-18T02:43:02;101893.03;;;-8.18;100.00
13348;BME280;6743;49.934;9.138;2022-12-18T02:45:29;101875.84;;;-8.18;100.00
13348;BME280;6743;49.934;9.138;2022-12-18T02:47:56;101886.97;;;-8.16;100.00
13348;BME280;6743;49.934;9.138;2022-12-18T02:50:26;101894.72;;;-8.14;100.00
13348;BME280;6743;49.934;9.138;2022-12-18T02:53:03;101887.84;;;-8.12;100.00
13348;BME280;6743;49.934;9.138;2022-12-18T02:55:44;101886.12;;;-8.13;100.00
13348;BME280;6743;49.934;9.138;2022-12-18T02:58:16;101884.41;;;-8.14;100.00
13348;BME280;6743;49.934;9.138;2022-12-18T03:00:50;101883.56;;;-8.13;100.00
13348;BME280;6743;49.934;9.138;2022-12-18T03:03:21;101887.84;;;-8.12;100.00
13348;BME280;6743;49.934;9.138;2022-12-18T03:05:54;101885.25;;;-8.12;100.00
13348;BME280;6743;49.934;9.138;2022-12-18T03:08:23;101888.69;;;-8.13;100.00
13348;BME280;6743;49.934;9.138;2022-12-18T03:10:55;101881.84;;;-8.16;100.00
13348;BME280;6743;49.934;9.138;2022-12-18T03:13:26;101880.16;;;-8.18;100.00
13348;BME280;6743;49.934;9.138;2022-12-18T03:15:55;101875.00;;;-8.21;100.00
13348;BME280;6743;49.934;9.138;2022-12-18T03:18:25;101885.31;;;-8.21;100.00
13348;BME280;6743;49.934;9.138;2022-12-18T03:20:56;101888.72;;;-8.22;100.00
13348;BME280;6743;49.934;9.138;2022-12-18T03:23:27;101888.75;;;-8.25;100.00
13348;BME280;6743;49.934;9.138;2022-12-18T03:25:58;101871.66;;;-8.34;100.00
13348;BME280;6743;49.934;9.138;2022-12-18T03:28:27;101881.91;;;-8.26;100.00
13348;BME280;6743;49.934;9.138;2022-12-18T03:30:58;101893.06;;;-8.26;100.00
13348;BME280;6743;49.934;9.138;2022-12-18T03:33:31;101870.81;;;-8.36;100.00
13348;BME280;6743;49.934;9.138;2022-12-18T03:36:05;101883.63;;;-8.28;100.00
13348;BME280;6743;49.934;9.138;2022-12-18T03:38:32;101878.53;;;-8.31;100.00
13348;BME280;6743;49.934;9.138;2022-12-18T03:41:03;101863.16;;;-8.44;100.00
13348;BME280;6743;49.934;9.138;2022-12-18T03:43:40;101884.56;;;-8.40;100.00
13348;BME280;6743;49.934;9.138;2022-12-18T03:46:15;101871.69;;;-8.43;100.00
13348;BME280;6743;49.934;9.138;2022-12-18T03:48:46;101870.00;;;-8.49;100.00
13348;BME280;6743;49.934;9.138;2022-12-18T03:51:18;101867.44;;;-8.50;100.00
13348;BME280;6743;49.934;9.138;2022-12-18T03:53:52;101879.44;;;-8.49;100.00
13348;BME280;6743;49.934;9.138;2022-12-18T03:56:22;101884.59;;;-8.48;100.00
13348;BME280;6743;49.934;9.138;2022-12-18T03:58:52;101880.31;;;-8.53;100.00
13348;BME280;6743;49.934;9.138;2022-12-18T04:01:24;101894.91;;;-8.57;100.00
13348;BME280;6743;49.934;9.138;2022-12-18T04:03:52;101889.78;;;-8.58;100.00
13348;BME280;6743;49.934;9.138;2022-12-18T04:06:19;101885.50;;;-8.58;100.00
13348;BME280;6743;49.934;9.138;2022-12-18T04:08:46;101867.50;;;-8.68;100.00
13348;BME280;6743;49.934;9.138;2022-12-18T04:11:13;101873.47;;;-8.63;100.00
13348;BME280;6743;49.934;9.138;2022-12-18T04:13:39;101881.22;;;-8.65;100.00
13348;BME280;6743;49.934;9.138;2022-12-18T04:16:06;101882.06;;;-8.63;100.00
13348;BME280;6743;49.934;9.138;2022-12-18T04:18:33;101861.50;;;-8.69;100.00
13348;BME280;6743;49.934;9.138;2022-12-18T04:21:00;101875.19;;;-8.62;100.00
13348;BME280;6743;49.934;9.138;2022-12-18T04:23:26;101882.06;;;-8.61;100.00
13348;BME280;6743;49.934;9.138;2022-12-18T04:25:52;101885.50;;;-8.61;100.00
13348;BME280;6743;49.934;9.138;2022-12-18T04:28:18;101876.91;;;-8.61;100.00
13348;BME280;6743;49.934;9.138;2022-12-18T04:30:44;101885.47;;;-8.52;100.00
13348;BME280;6743;49.934;9.138;2022-12-18T04:33:10;101881.16;;;-8.50;100.00
13348;BME280;6743;49.934;9.138;2022-12-18T04:35:38;101876.00;;;-8.48;100.00
13348;BME280;6743;49.934;9.138;2022-12-18T04:38:05;101871.72;;;-8.49;100.00
13348;BME280;6743;49.934;9.138;2022-12-18T04:40:31;101854.59;;;-8.55;100.00
13348;BME280;6743;49.934;9.138;2022-12-18T04:42:57;101865.69;;;-8.42;100.00
13348;BME280;6743;49.934;9.138;2022-12-18T04:45:23;101856.25;;;-8.39;100.00
13348;BME280;6743;49.934;9.138;2022-12-18T04:47:49;101863.09;;;-8.36;100.00
13348;BME280;6743;49.934;9.138;2022-12-18T04:50:16;101853.69;;;-8.40;100.00
13348;BME280;6743;49.934;9.138;2022-12-18T04:52:44;101861.38;;;-8.32;100.00
13348;BME280;6743;49.934;9.138;2022-12-18T04:55:10;101869.09;;;-8.31;100.00
13348;BME280;6743;49.934;9.138;2022-12-18T04:57:36;101864.81;;;-8.30;100.00
13348;BME280;6743;49.934;9.138;2022-12-18T05:00:03;101864.81;;;-8.30;100.00
13348;BME280;6743;49.934;9.138;2022-12-18T05:02:29;101856.22;;;-8.31;100.00
13348;BME280;6743;49.934;9.138;2022-12-18T05:04:55;101863.94;;;-8.31;100.00
13348;BME280;6743;49.934;9.138;2022-12-18T05:07:21;101853.69;;;-8.42;100.00
13348;BME280;6743;49.934;9.138;2022-12-18T05:09:47;101872.53;;;-8.32;100.00
13348;BME280;6743;49.934;9.138;2022-12-18T05:12:13;101875.97;;;-8.33;100.00
13348;BME280;6743;49.934;9.138;2022-12-18T05:14:39;101872.53;;;-8.33;100.00
13348;BME280;6743;49.934;9.138;2022-12-18T05:17:05;101863.09;;;-8.34;100.00
13348;BME280;6743;49.934;9.138;2022-12-18T05:19:31;101866.50;;;-8.34;100.00
13348;BME280;6743;49.934;9.138;2022-12-18T05:21:58;101866.53;;;-8.39;100.00
13348;BME280;6743;49.934;9.138;2022-12-18T05:24:26;101869.12;;;-8.37;100.00
13348;BME280;6743;49.934;9.138;2022-12-18T05:26:53;101866.53;;;-8.42;100.00
13348;BME280;6743;49.934;9.138;2022-12-18T05:29:19;101873.41;;;-8.39;100.00
13348;BME280;6743;49.934;9.138;2022-12-18T05:31:46;101872.56;;;-8.41;100.00
13348;BME280;6743;49.934;9.138;2022-12-18T05:34:12;101877.69;;;-8.43;100.00
13348;BME280;6743;49.934;9.138;2022-12-18T05:36:38;101883.72;;;-8.44;100.00
13348;BME280;6743;49.934;9.138;2022-12-18T05:39:04;101890.56;;;-8.43;100.00
13348;BME280;6743;49.934;9.138;2022-12-18T05:41:31;101878.56;;;-8.42;100.00
13348;BME280;6743;49.934;9.138;2022-12-18T05:43:58;101883.72;;;-8.41;100.00
13348;BME280;6743;49.934;9.138;2022-12-18T05:46:25;101862.31;;;-8.53;100.00
13348;BME280;6743;49.934;9.138;2022-12-18T05:48:51;101870.03;;;-8.53;100.00
13348;BME280;6743;49.934;9.138;2022-12-18T05:51:19;101882.88;;;-8.49;100.00
13348;BME280;6743;49.934;9.138;2022-12-18T05:53:46;101878.59;;;-8.50;100.00
13348;BME280;6743;49.934;9.138;2022-12-18T05:56:15;101883.75;;;-8.51;100.00
13348;BME280;6743;49.934;9.138;2022-12-18T05:58:42;101880.31;;;-8.55;100.00
13348;BME280;6743;49.934;9.138;2022-12-18T06:01:11;101884.59;;;-8.57;100.00
13348;BME280;6743;49.934;9.138;2022-12-18T06:03:39;101876.06;;;-8.59;100.00
13348;BME280;6743;49.934;9.138;2022-12-18T06:06:13;101875.22;;;-8.65;100.00
13348;BME280;6743;49.934;9.138;2022-12-18T06:08:39;101876.91;;;-8.61;100.00
13348;BME280;6743;49.934;9.138;2022-12-18T06:11:05;101876.91;;;-8.61;100.00
13348;BME280;6743;49.934;9.138;2022-12-18T06:13:31;101877.78;;;-8.62;100.00
13348;BME280;6743;49.934;9.138;2022-12-18T06:15:57;101885.50;;;-8.61;100.00
13348;BME280;6743;49.934;9.138;2022-12-18T06:18:24;101887.19;;;-8.63;100.00
13348;BME280;6743;49.934;9.138;2022-12-18T06:20:54;101888.09;;;-8.65;100.00
13348;BME280;6743;49.934;9.138;2022-12-18T06:23:21;101895.81;;;-8.67;100.00
13348;BME280;6743;49.934;9.138;2022-12-18T06:25:47;101888.06;;;-8.68;100.00
13348;BME280;6743;49.934;9.138;2022-12-18T06:28:13;101892.38;;;-8.70;100.00
13348;BME280;6743;49.934;9.138;2022-12-18T06:30:43;101892.38;;;-8.73;100.00
13348;BME280;6743;49.934;9.138;2022-12-18T06:33:11;101897.53;;;-8.72;100.00
13348;BME280;6743;49.934;9.138;2022-12-18T06:35:39;101898.41;;;-8.71;100.00
13348;BME280;6743;49.934;9.138;2022-12-18T06:38:06;101894.09;;;-8.72;100.00
13348;BME280;6743;49.934;9.138;2022-12-18T06:40:32;101903.53;;;-8.71;100.00
13348;BME280;6743;49.934;9.138;2022-12-18T06:42:59;101900.09;;;-8.72;100.00
13348;BME280;6743;49.934;9.138;2022-12-18T06:45:25;101895.81;;;-8.78;100.00
13348;BME280;6743;49.934;9.138;2022-12-18T06:47:52;101901.81;;;-8.76;100.00
13348;BME280;6743;49.934;9.138;2022-12-18T06:50:21;101907.81;;;-8.77;100.00
13348;BME280;6743;49.934;9.138;2022-12-18T06:52:48;101908.66;;;-8.78;100.00
13348;BME280;6743;49.934;9.138;2022-12-18T06:55:15;101917.25;;;-8.77;100.00
13348;BME280;6743;49.934;9.138;2022-12-18T06:57:41;101914.69;;;-8.79;100.00
13348;BME280;6743;49.934;9.138;2022-12-18T07:00:08;101908.72;;;-8.87;100.00
13348;BME280;6743;49.934;9.138;2022-12-18T07:02:34;101914.69;;;-8.85;100.00
13348;BME280;6743;49.934;9.138;2022-12-18T07:05:01;101937.84;;;-8.74;100.00
13348;BME280;6743;49.934;9.138;2022-12-18T07:07:27;101936.13;;;-8.75;100.00
13348;BME280;6743;49.934;9.138;2022-12-18T07:09:54;101936.09;;;-8.77;100.00
13348;BME280;6743;49.934;9.138;2022-12-18T07:12:20;101933.53;;;-8.77;100.00
13348;BME280;6743;49.934;9.138;2022-12-18T07:14:46;101942.97;;;-8.76;100.00
13348;BME280;6743;49.934;9.138;2022-12-18T07:17:12;101942.13;;;-8.73;100.00
13348;BME280;6743;49.934;9.138;2022-12-18T07:19:38;101940.41;;;-8.74;100.00
13348;BME280;6743;49.934;9.138;2022-12-18T07:22:04;101932.69;;;-8.76;100.00
13348;BME280;6743;49.934;9.138;2022-12-18T07:24:29;101935.25;;;-8.77;100.00
13348;BME280;6743;49.934;9.138;2022-12-18T07:26:56;101936.13;;;-8.78;100.00
13348;BME280;6743;49.934;9.138;2022-12-18T07:29:23;101935.28;;;-8.79;100.00
13348;BME280;6743;49.934;9.138;2022-12-18T07:31:49;101950.69;;;-8.80;100.00
13348;BME280;6743;49.934;9.138;2022-12-18T07:34:15;101954.12;;;-8.80;100.00
13348;BME280;6743;49.934;9.138;2022-12-18T07:36:41;101946.41;;;-8.90;100.00
13348;BME280;6743;49.934;9.138;2022-12-18T07:39:07;101950.69;;;-8.82;100.00
13348;BME280;6743;49.934;9.138;2022-12-18T07:41:33;101940.41;;;-8.82;100.00
13348;BME280;6743;49.934;9.138;2022-12-18T07:44:00;101943.84;;;-8.80;100.00
13348;BME280;6743;49.934;9.138;2022-12-18T07:46:26;101949.00;;;-8.78;100.00
13348;BME280;6743;49.934;9.138;2022-12-18T07:48:52;101942.09;;;-8.78;100.00
13348;BME280;6743;49.934;9.138;2022-12-18T07:51:18;101946.41;;;-8.77;100.00
13348;BME280;6743;49.934;9.138;2022-12-18T07:53:44;101951.53;;;-8.75;100.00
13348;BME280;6743;49.934;9.138;2022-12-18T07:56:11;101948.13;;;-8.74;100.00
13348;BME280;6743;49.934;9.138;2022-12-18T07:58:38;101956.69;;;-8.69;100.00
13348;BME280;6743;49.934;9.138;2022-12-18T08:01:06;101950.69;;;-8.72;100.00
13348;BME280;6743;49.934;9.138;2022-12-18T08:03:33;101953.25;;;-8.65;100.00
13348;BME280;6743;49.934;9.138;2022-12-18T08:06:00;101965.25;;;-8.61;100.00
13348;BME280;6743;49.934;9.138;2022-12-18T08:08:26;101968.66;;;-8.56;100.00
13348;BME280;6743;49.934;9.138;2022-12-18T08:10:52;101966.09;;;-8.53;100.00
13348;BME280;6743;49.934;9.138;2022-12-18T08:13:18;101966.09;;;-8.51;100.00
13348;BME280;6743;49.934;9.138;2022-12-18T08:15:44;101966.06;;;-8.50;100.00
13348;BME280;6743;49.934;9.138;2022-12-18T08:18:10;101969.50;;;-8.48;100.00
13348;BME280;6743;49.934;9.138;2022-12-18T08:20:36;101969.53;;;-8.45;100.00
13348;BME280;6743;49.934;9.138;2022-12-18T08:23:02;101967.78;;;-8.40;100.00
13348;BME280;6743;49.934;9.138;2022-12-18T08:25:28;101961.75;;;-8.36;100.00
13348;BME280;6743;49.934;9.138;2022-12-18T08:27:54;101958.28;;;-8.30;100.00
13348;BME280;6743;49.934;9.138;2022-12-18T08:30:22;101965.13;;;-8.24;100.00
13348;BME280;6743;49.934;9.138;2022-12-18T08:32:51;101965.94;;;-8.13;100.00
13348;BME280;6743;49.934;9.138;2022-12-18T08:35:18;101959.91;;;-8.06;100.00
13348;BME280;6743;49.934;9.138;2022-12-18T08:37:44;101947.84;;;-7.95;100.00
13348;BME280;6743;49.934;9.138;2022-12-18T08:40:11;101953.81;;;-7.87;100.00
13348;BME280;6743;49.934;9.138;2022-12-18T08:42:38;101953.78;;;-7.79;100.00
13348;BME280;6743;49.934;9.138;2022-12-18T08:45:22;101955.47;;;-7.72;100.00
13348;BME280;6743;49.934;9.138;2022-12-18T08:47:51;101951.13;;;-7.66;100.00
13348;BME280;6743;49.934;9.138;2022-12-18T08:50:18;101948.50;;;-7.60;100.00
13348;BME280;6743;49.934;9.138;2022-12-18T08:52:45;101955.34;;;-7.52;100.00
13348;BME280;6743;49.934;9.138;2022-12-18T08:55:11;101945.03;;;-7.49;100.00
13348;BME280;6743;49.934;9.138;2022-12-18T08:57:37;101957.00;;;-7.42;100.00
13348;BME280;6743;49.934;9.138;2022-12-18T09:00:04;101952.66;;;-7.37;100.00
13348;BME280;6743;49.934;9.138;2022-12-18T09:02:30;101943.16;;;-7.31;100.00
13348;BME280;6743;49.934;9.138;2022-12-18T09:04:56;101939.69;;;-7.25;100.00
13348;BME280;6743;49.934;9.138;2022-12-18T09:07:23;101942.25;;;-7.19;100.00
13348;BME280;6743;49.934;9.138;2022-12-18T09:09:49;101931.87;;;-7.16;100.00
13348;BME280;6743;49.934;9.138;2022-12-18T09:12:15;101934.41;;;-7.10;100.00
13348;BME280;6743;49.934;9.138;2022-12-18T09:14:41;101927.47;;;-7.02;100.00
13348;BME280;6743;49.934;9.138;2022-12-18T09:17:07;101938.63;;;-6.98;100.00
13348;BME280;6743;49.934;9.138;2022-12-18T09:19:33;101939.44;;;-6.95;100.00
13348;BME280;6743;49.934;9.138;2022-12-18T09:21:59;101945.41;;;-6.91;100.00
13348;BME280;6743;49.934;9.138;2022-12-18T09:24:26;101946.28;;;-6.89;100.00
13348;BME280;6743;49.934;9.138;2022-12-18T09:26:53;101962.56;;;-6.83;100.00
13348;BME280;6743;49.934;9.138;2022-12-18T09:29:19;101963.41;;;-6.81;100.00
13348;BME280;6743;49.934;9.138;2022-12-18T09:31:45;101965.94;;;-6.76;100.00
13348;BME280;6743;49.934;9.138;2022-12-18T09:34:11;101970.22;;;-6.73;100.00
13348;BME280;6743;49.934;9.138;2022-12-18T09:36:37;101972.81;;;-6.72;100.00
13348;BME280;6743;49.934;9.138;2022-12-18T09:39:03;101980.50;;;-6.67;100.00
13348;BME280;6743;49.934;9.138;2022-12-18T09:41:43;101983.06;;;-6.66;100.00
13348;BME280;6743;49.934;9.138;2022-12-18T09:44:17;101982.19;;;-6.65;100.00
13348;BME280;6743;49.934;9.138;2022-12-18T09:46:47;101980.44;;;-6.63;100.00
13348;BME280;6743;49.934;9.138;2022-12-18T09:49:16;101972.72;;;-6.64;100.00
13348;BME280;6743;49.934;9.138;2022-12-18T09:51:47;101979.53;;;-6.57;100.00
13348;BME280;6743;49.934;9.138;2022-12-18T09:54:20;101974.41;;;-6.63;100.00
13348;BME280;6743;49.934;9.138;2022-12-18T09:56:48;101978.66;;;-6.55;100.00
13348;BME280;6743;49.934;9.138;2022-12-18T09:59:21;101979.50;;;-6.51;100.00
13348;BME280;6743;49.934;9.138;2022-12-18T10:01:51;101976.88;;;-6.50;100.00
13348;BME280;6743;49.934;9.138;2022-12-18T10:04:19;101972.53;;;-6.46;100.00
13348;BME280;6743;49.934;9.138;2022-12-18T10:06:50;101968.22;;;-6.44;100.00
13348;BME280;6743;49.934;9.138;2022-12-18T10:09:24;101965.59;;;-6.43;100.00
13348;BME280;6743;49.934;9.138;2022-12-18T10:12:03;101972.41;;;-6.36;100.00
13348;BME280;6743;49.934;9.138;2022-12-18T10:14:40;101958.63;;;-6.33;100.00
13348;BME280;6743;49.934;9.138;2022-12-18T10:17:17;101958.63;;;-6.33;100.00
13348;BME280;6743;49.934;9.138;2022-12-18T10:20:25;101954.31;;;-6.31;100.00
13348;BME280;6743;49.934;9.138;2022-12-18T10:22:58;101950.81;;;-6.28;100.00
13348;BME280;6743;49.934;9.138;2022-12-18T10:25:31;101963.72;;;-6.25;100.00
13348;BME280;6743;49.934;9.138;2022-12-18T10:28:10;101969.69;;;-6.22;100.00
13348;BME280;6743;49.934;9.138;2022-12-18T10:30:39;101971.38;;;-6.18;100.00
13348;BME280;6743;49.934;9.138;2022-12-18T10:33:05;101953.38;;;-6.24;100.00
13348;BME280;6743;49.934;9.138;2022-12-18T10:35:31;101949.03;;;-6.22;100.00
13348;BME280;6743;49.934;9.138;2022-12-18T10:38:21;101966.06;;;-6.07;100.00
13348;BME280;6743;49.934;9.138;2022-12-18T10:40:49;101953.06;;;-6.00;100.00
13348;BME280;6743;49.934;9.138;2022-12-18T10:43:22;101947.03;;;-5.97;100.00
13348;BME280;6743;49.934;9.138;2022-12-18T10:46:04;101944.38;;;-5.94;100.00
13348;BME280;6743;49.934;9.138;2022-12-18T10:48:33;101939.19;;;-5.91;100.00
13348;BME280;6743;49.934;9.138;2022-12-18T10:51:01;101931.41;;;-5.88;100.00
13348;BME280;6743;49.934;9.138;2022-12-18T10:53:31;101926.16;;;-5.86;100.00
13348;BME280;6743;49.934;9.138;2022-12-18T10:55:58;101930.34;;;-5.76;100.00
13348;BME280;6743;49.934;9.138;2022-12-18T10:58:27;101926.81;;;-5.72;100.00
13348;BME280;6743;49.934;9.138;2022-12-18T11:01:09;101933.62;;;-5.67;100.00
13348;BME280;6743;49.934;9.138;2022-12-18T11:03:38;101940.50;;;-5.64;100.00
13348;BME280;6743;49.934;9.138;2022-12-18T11:06:08;101929.28;;;-5.60;100.00
13348;BME280;6743;49.934;9.138;2022-12-18T11:08:35;101938.75;;;-5.61;100.00
13348;BME280;6743;49.934;9.138;2022-12-18T11:11:02;101934.38;;;-5.59;100.00
13348;BME280;6743;49.934;9.138;2022-12-18T11:13:30;101929.09;;;-5.51;100.00
13348;BME280;6743;49.934;9.138;2022-12-18T11:15:57;101921.31;;;-5.46;100.00
13348;BME280;6743;49.934;9.138;2022-12-18T11:18:26;101927.28;;;-5.43;100.00
13348;BME280;6743;49.934;9.138;2022-12-18T11:20:55;101930.62;;;-5.38;100.00
13348;BME280;6743;49.934;9.138;2022-12-18T11:23:23;101937.50;;;-5.34;100.00
13348;BME280;6743;49.934;9.138;2022-12-18T11:25:57;101926.19;;;-5.28;100.00
13348;BME280;6743;49.934;9.138;2022-12-18T11:28:37;101929.56;;;-5.23;100.00
13348;BME280;6743;49.934;9.138;2022-12-18T11:31:20;101921.69;;;-5.17;100.00
13348;BME280;6743;49.934;9.138;2022-12-18T11:33:51;101918.09;;;-5.08;100.00
13348;BME280;6743;49.934;9.138;2022-12-18T11:36:20;101919.72;;;-5.03;100.00
13348;BME280;6743;49.934;9.138;2022-12-18T11:38:49;101913.59;;;-4.97;100.00
13348;BME280;6743;49.934;9.138;2022-12-18T11:41:23;101909.16;;;-4.91;100.00
13348;BME280;6743;49.934;9.138;2022-12-18T11:44:15;101898.75;;;-4.86;100.00
13348;BME280;6743;49.934;9.138;2022-12-18T11:46:48;101897.81;;;-4.84;100.00
13348;BME280;6743;49.934;9.138;2022-12-18T11:49:24;101893.38;;;-4.77;100.00
13348;BME280;6743;49.934;9.138;2022-12-18T11:51:57;101890.78;;;-4.76;100.00
13348;BME280;6743;49.934;9.138;2022-12-18T11:54:25;101885.56;;;-4.72;100.00
13348;BME280;6743;49.934;9.138;2022-12-18T11:56:58;101882.84;;;-4.66;100.00
13348;BME280;6743;49.934;9.138;2022-12-18T11:59:35;101883.59;;;-4.60;100.00
13348;BME280;6743;49.934;9.138;2022-12-18T12:02:17;101889.59;;;-4.58;100.00
13348;BME280;6743;49.934;9.138;2022-12-18T12:05:03;101895.53;;;-4.53;100.00
13348;BME280;6743;49.934;9.138;2022-12-18T12:07:39;101892.94;;;-4.53;100.00
13348;BME280;6743;49.934;9.138;2022-12-18T12:10:24;101898.88;;;-4.48;100.00
13348;BME280;6743;49.934;9.138;2022-12-18T12:13:01;101906.62;;;-4.46;100.00
13348;BME280;6743;49.934;9.138;2022-12-18T12:15:40;101890.19;;;-4.44;100.00
13348;BME280;6743;49.934;9.138;2022-12-18T12:18:19;101884.13;;;-4.43;100.00
13348;BME280;6743;49.934;9.138;2022-12-18T12:20:56;101878.88;;;-4.40;100.00
13348;BME280;6743;49.934;9.138;2022-12-18T12:23:30;101884.87;;;-4.38;100.00
13348;BME280;6743;49.934;9.138;2022-12-18T12:26:04;101880.47;;;-4.34;100.00
13348;BME280;6743;49.934;9.138;2022-12-18T12:29:04;101879.56;;;-4.30;100.00
13348;BME280;6743;49.934;9.138;2022-12-18T12:31:44;101875.13;;;-4.26;100.00
13348;BME280;6743;49.934;9.138;2022-12-18T12:34:19;101875.94;;;-4.23;100.00
13348;BME280;6743;49.934;9.138;2022-12-18T12:37:01;101887.16;;;-4.22;100.00
13348;BME280;6743;49.934;9.138;2022-12-18T12:39:33;101880.19;;;-4.20;100.00
13348;BME280;6743;49.934;9.138;2022-12-18T12:42:01;101881.91;;;-4.19;100.00
13348;BME280;6743;49.934;9.138;2022-12-18T12:44:49;101887.91;;;-4.16;100.00
13348;BME280;6743;49.934;9.138;2022-12-18T12:47:21;101887.78;;;-4.11;100.00
13348;BME280;6743;49.934;9.138;2022-12-18T12:49:49;101899.78;;;-4.07;100.00
13348;BME280;6743;49.934;9.138;2022-12-18T12:52:20;101896.31;;;-4.06;100.00
13348;BME280;6743;49.934;9.138;2022-12-18T12:54:51;101890.25;;;-4.05;100.00
13348;BME280;6743;49.934;9.138;2022-12-18T12:57:23;101885.91;;;-4.05;100.00
13348;BME280;6743;49.934;9.138;2022-12-18T12:59:57;101883.31;;;-4.05;100.00
13348;BME280;6743;49.934;9.138;2022-12-18T13:02:30;101880.75;;;-4.06;100.00